Time;durP1;ratioP1;P1;durP2;ratioP2;P2;SDS_P1;SDS_P2;PMS_P1;PMS_P2;Temp;Humidity;BMP_temperature;BMP_pressure;BME280_temperature;BME280_humidity;BME280_pressure;Samples;Min_cycle;Max_cycle;Signal;HPM_P1;HPM_P2
2023/08/15 00:01:22;;;;;;;16.80;11.35;;;18.20;99.90;;;;;;5060029;28;20051;-84
2023/08/15 00:03:50;;;;;;;17.27;11.10;;;18.20;99.90;;;;;;5036592;28;20455;-84
2023/08/15 00:06:18;;;;;;;21.55;11.07;;;18.20;99.90;;;;;;5019532;28;20075;-85
2023/08/15 00:08:44;;;;;;;14.77;10.32;;;18.20;99.90;;;;;;5036298;28;20045;-84
2023/08/15 00:11:09;;;;;;;13.55;10.50;;;18.20;99.90;;;;;;5045701;28;20621;-84
2023/08/15 00:13:35;;;;;;;13.30;9.70;;;18.20;99.90;;;;;;5036379;28;20037;-84
2023/08/15 00:16:01;;;;;;;14.98;10.25;;;18.20;99.90;;;;;;5018615;28;20389;-84
2023/08/15 00:18:27;;;;;;;14.95;9.13;;;18.20;99.90;;;;;;5050837;28;20533;-84
2023/08/15 00:20:52;;;;;;;13.10;9.35;;;18.20;99.90;;;;;;5057134;28;20480;-85
2023/08/15 00:23:18;;;;;;;14.15;9.10;;;18.10;99.90;;;;;;5031151;28;20500;-84
2023/08/15 00:25:44;;;;;;;13.85;9.68;;;18.10;99.90;;;;;;5013426;28;20033;-84
2023/08/15 00:28:09;;;;;;;12.73;9.57;;;18.10;99.90;;;;;;5018727;28;20262;-84
2023/08/15 00:30:35;;;;;;;14.73;9.85;;;18.00;99.90;;;;;;5024687;28;20127;-84
2023/08/15 00:33:01;;;;;;;14.82;9.93;;;18.00;99.90;;;;;;5037406;28;20546;-85
2023/08/15 00:35:27;;;;;;;12.32;9.48;;;18.00;99.90;;;;;;5042437;28;20047;-85
2023/08/15 00:37:52;;;;;;;11.80;8.48;;;18.00;99.90;;;;;;5051971;28;20039;-85
2023/08/15 00:40:18;;;;;;;12.60;8.60;;;17.90;99.90;;;;;;5043551;28;20044;-85
2023/08/15 00:42:44;;;;;;;12.35;8.20;;;17.90;99.90;;;;;;5032059;28;20045;-85
2023/08/15 00:45:10;;;;;;;13.95;8.63;;;17.90;99.90;;;;;;5015508;28;20045;-84
2023/08/15 00:47:37;;;;;;;11.10;8.73;;;17.90;99.90;;;;;;5018791;28;20041;-84
2023/08/15 00:50:05;;;;;;;11.85;8.82;;;17.90;99.90;;;;;;5051264;28;20044;-85
2023/08/15 00:52:31;;;;;;;13.07;8.23;;;17.90;99.90;;;;;;5048807;28;20041;-85
2023/08/15 00:54:58;;;;;;;10.18;7.68;;;17.90;99.90;;;;;;5041715;28;20041;-85
2023/08/15 00:57:24;;;;;;;14.43;8.38;;;17.80;99.90;;;;;;5016914;28;20369;-85
2023/08/15 00:59:50;;;;;;;13.82;8.65;;;17.80;99.90;;;;;;5038328;28;20052;-85
2023/08/15 01:02:16;;;;;;;11.93;8.40;;;17.80;99.90;;;;;;5018704;28;20041;-85
2023/08/15 01:04:42;;;;;;;10.50;8.18;;;17.80;99.90;;;;;;5018602;28;20039;-85
2023/08/15 01:07:09;;;;;;;15.75;9.00;;;17.70;99.90;;;;;;5029527;28;20037;-85
2023/08/15 01:09:35;;;;;;;10.95;8.98;;;17.70;99.90;;;;;;5034196;28;20670;-84
2023/08/15 01:12:04;;;;;;;12.18;9.30;;;17.70;99.90;;;;;;5059154;28;20040;-85
2023/08/15 01:14:38;;;;;;;11.95;8.95;;;17.70;99.90;;;;;;5023603;28;20064;-84
2023/08/15 01:17:05;;;;;;;14.60;9.50;;;17.70;99.90;;;;;;5034673;28;20120;-84
2023/08/15 01:19:46;;;;;;;10.15;8.77;;;17.70;99.90;;;;;;5034653;28;20057;-84
2023/08/15 01:22:24;;;;;;;12.52;8.75;;;17.70;99.90;;;;;;5034997;28;20095;-84
2023/08/15 01:24:50;;;;;;;14.77;9.20;;;17.70;99.90;;;;;;5034876;28;20076;-84
2023/08/15 01:27:16;;;;;;;14.18;9.63;;;17.70;99.90;;;;;;5036558;28;20044;-84
2023/08/15 01:29:41;;;;;;;14.93;10.38;;;17.70;99.90;;;;;;5025234;28;20051;-83
2023/08/15 01:32:33;;;;;;;12.90;10.10;;;17.70;99.90;;;;;;5017743;28;20040;-84
2023/08/15 01:35:21;;;;;;;14.52;9.75;;;17.70;99.90;;;;;;5045069;28;20397;-84
2023/08/15 01:38:01;;;;;;;14.68;10.80;;;17.60;99.90;;;;;;5043477;28;20429;-85
2023/08/15 01:40:29;;;;;;;16.40;11.70;;;17.60;99.90;;;;;;5052199;28;20435;-85
2023/08/15 01:42:58;;;;;;;17.20;11.57;;;17.60;99.90;;;;;;5015654;28;20148;-84
2023/08/15 01:45:25;;;;;;;15.25;10.88;;;17.70;99.90;;;;;;5050830;28;20055;-85
2023/08/15 01:47:51;;;;;;;18.70;11.30;;;17.60;99.90;;;;;;5032760;28;20449;-84
2023/08/15 01:50:17;;;;;;;14.25;10.93;;;17.60;99.90;;;;;;5036392;28;20037;-85
2023/08/15 01:52:43;;;;;;;16.95;10.65;;;17.60;99.90;;;;;;5033500;28;20098;-85
2023/08/15 01:55:09;;;;;;;16.55;11.32;;;17.60;99.90;;;;;;5040694;28;20033;-85
2023/08/15 01:57:35;;;;;;;17.05;12.05;;;17.60;99.90;;;;;;5034717;28;20037;-85
2023/08/15 02:00:01;;;;;;;14.05;11.20;;;17.50;99.90;;;;;;5051098;28;20103;-85
2023/08/15 02:02:26;;;;;;;15.40;11.73;;;17.50;99.90;;;;;;5020493;28;20120;-85
2023/08/15 02:04:52;;;;;;;18.83;12.13;;;17.50;99.90;;;;;;4997733;28;20069;-85
2023/08/15 02:07:18;;;;;;;15.05;11.93;;;17.50;99.90;;;;;;5019670;28;20070;-84
2023/08/15 02:09:43;;;;;;;17.95;12.20;;;17.40;99.90;;;;;;5033485;28;20036;-85
2023/08/15 02:12:09;;;;;;;16.30;10.15;;;17.40;99.90;;;;;;5001469;28;20094;-85
2023/08/15 02:14:35;;;;;;;17.40;11.40;;;17.40;99.90;;;;;;5016173;28;20408;-85
2023/08/15 02:17:00;;;;;;;16.95;12.57;;;17.40;99.90;;;;;;5015180;28;20039;-84
2023/08/15 02:19:26;;;;;;;18.20;12.15;;;17.40;99.90;;;;;;5017550;28;20095;-84
2023/08/15 02:21:52;;;;;;;15.05;11.60;;;17.40;99.90;;;;;;5033793;28;20056;-85
2023/08/15 02:24:18;;;;;;;14.23;10.95;;;17.40;99.90;;;;;;5050537;28;20041;-85
2023/08/15 02:26:44;;;;;;;18.63;11.85;;;17.40;99.90;;;;;;5037164;28;20080;-85
2023/08/15 02:29:09;;;;;;;15.18;11.25;;;17.50;99.90;;;;;;5033392;28;20037;-85
2023/08/15 02:31:42;;;;;;;18.23;11.40;;;17.40;99.90;;;;;;5010850;28;20029;-85
2023/08/15 02:34:08;;;;;;;17.05;12.40;;;17.50;99.90;;;;;;5007072;28;20045;-86
2023/08/15 02:36:34;;;;;;;18.02;12.15;;;17.50;99.90;;;;;;5050730;28;20032;-86
2023/08/15 02:38:59;;;;;;;12.93;10.70;;;17.50;99.90;;;;;;5019220;28;20768;-86
2023/08/15 02:41:25;;;;;;;13.85;11.15;;;17.50;99.90;;;;;;5033555;28;20052;-85
2023/08/15 02:43:51;;;;;;;14.95;10.55;;;17.60;99.90;;;;;;5033569;28;20037;-86
2023/08/15 02:46:17;;;;;;;14.45;12.38;;;17.60;99.90;;;;;;5055895;28;20078;-87
2023/08/15 02:48:42;;;;;;;17.77;12.30;;;17.60;99.90;;;;;;5046523;28;20179;-87
2023/08/15 02:51:08;;;;;;;16.88;13.93;;;17.70;99.90;;;;;;5033916;28;20095;-86
2023/08/15 02:53:35;;;;;;;18.55;13.98;;;17.70;99.90;;;;;;5035771;28;20490;-86
2023/08/15 02:56:01;;;;;;;16.48;14.68;;;17.80;99.90;;;;;;5037592;28;20385;-87
2023/08/15 02:58:27;;;;;;;18.83;14.80;;;17.90;99.90;;;;;;5057766;28;20048;-87
2023/08/15 03:00:53;;;;;;;21.80;15.57;;;17.90;99.90;;;;;;5033557;28;20149;-86
2023/08/15 03:03:19;;;;;;;17.33;15.48;;;18.00;99.90;;;;;;5041372;28;20050;-87
2023/08/15 03:05:44;;;;;;;19.20;16.77;;;18.00;99.90;;;;;;5037522;28;20480;-85
2023/08/15 03:08:10;;;;;;;21.98;16.85;;;18.10;99.90;;;;;;5044522;28;20037;-85
2023/08/15 03:10:38;;;;;;;18.58;16.58;;;18.10;99.90;;;;;;5020871;28;20036;-86
2023/08/15 03:13:04;;;;;;;21.75;17.40;;;18.20;99.90;;;;;;5037759;28;20045;-85
2023/08/15 03:15:29;;;;;;;18.40;14.82;;;18.30;99.90;;;;;;5021625;28;20056;-86
2023/08/15 03:17:57;;;;;;;20.25;16.67;;;18.30;99.90;;;;;;5033058;28;20496;-85
2023/08/15 03:20:22;;;;;;;21.75;16.85;;;18.30;99.90;;;;;;5017978;28;20448;-85
2023/08/15 03:22:48;;;;;;;21.50;17.05;;;18.30;99.90;;;;;;5051944;28;20032;-87
2023/08/15 03:25:14;;;;;;;22.02;17.67;;;18.30;99.90;;;;;;5025724;28;20045;-87
2023/08/15 03:27:40;;;;;;;21.42;18.50;;;18.30;99.90;;;;;;5037426;28;20087;-86
2023/08/15 03:30:06;;;;;;;23.27;19.15;;;18.30;99.90;;;;;;5067308;28;20034;-88
2023/08/15 03:32:32;;;;;;;24.92;18.65;;;18.40;99.90;;;;;;5029528;28;20603;-87
2023/08/15 03:34:57;;;;;;;25.73;20.13;;;18.40;99.90;;;;;;5020238;28;20132;-86
2023/08/15 03:37:23;;;;;;;22.55;20.10;;;18.40;99.90;;;;;;5027835;28;20033;-87
2023/08/15 03:39:49;;;;;;;24.35;20.52;;;18.40;99.90;;;;;;5015454;28;20078;-86
2023/08/15 03:42:17;;;;;;;25.02;21.20;;;18.50;99.90;;;;;;5055996;28;20639;-90
2023/08/15 03:44:43;;;;;;;27.25;21.33;;;18.50;99.90;;;;;;5027829;28;20037;-87
2023/08/15 03:47:08;;;;;;;23.60;20.35;;;18.50;99.90;;;;;;5046939;28;20044;-87
2023/08/15 03:49:34;;;;;;;22.20;19.75;;;18.50;99.90;;;;;;5036586;28;20045;-88
2023/08/15 03:52:00;;;;;;;24.73;21.50;;;18.50;99.90;;;;;;5036594;28;20044;-88
2023/08/15 03:54:25;;;;;;;22.15;19.80;;;18.60;99.90;;;;;;5043081;28;20029;-86
2023/08/15 03:56:51;;;;;;;21.20;18.95;;;18.60;99.90;;;;;;5040347;28;20037;-85
2023/08/15 03:59:18;;;;;;;24.00;19.83;;;18.60;99.90;;;;;;5031872;28;20053;-85
2023/08/15 04:01:43;;;;;;;24.45;19.60;;;18.60;99.90;;;;;;5050003;28;20037;-85
2023/08/15 04:04:10;;;;;;;22.52;18.70;;;18.60;99.90;;;;;;5029654;28;20480;-86
2023/08/15 04:06:36;;;;;;;23.48;17.63;;;18.50;99.90;;;;;;5036288;28;20053;-86
2023/08/15 04:09:01;;;;;;;22.17;19.02;;;18.50;99.90;;;;;;5019556;28;20037;-86
2023/08/15 04:11:27;;;;;;;21.48;18.75;;;18.50;99.90;;;;;;5036069;28;20041;-87
2023/08/15 04:13:53;;;;;;;22.27;19.83;;;18.50;99.90;;;;;;5036074;28;20528;-85
2023/08/15 04:16:19;;;;;;;22.38;19.35;;;18.50;99.90;;;;;;5019083;28;20045;-85
2023/08/15 04:18:44;;;;;;;24.25;19.98;;;18.50;99.90;;;;;;5051926;28;20052;-86
2023/08/15 04:21:11;;;;;;;24.55;19.42;;;18.60;99.90;;;;;;5023305;28;20041;-86
2023/08/15 04:23:37;;;;;;;26.40;19.63;;;18.60;99.90;;;;;;5052532;28;20041;-89
2023/08/15 04:26:02;;;;;;;24.27;19.73;;;18.60;99.90;;;;;;5046430;28;20404;-88
2023/08/15 04:28:28;;;;;;;22.05;19.67;;;18.60;99.90;;;;;;5044039;28;20069;-87
2023/08/15 04:30:54;;;;;;;23.95;20.48;;;18.60;99.90;;;;;;5053007;28;20044;-86
2023/08/15 04:33:20;;;;;;;23.63;20.17;;;18.60;99.90;;;;;;5044492;28;20678;-89
2023/08/15 04:35:46;;;;;;;22.30;19.92;;;18.60;99.90;;;;;;5037542;28;20040;-88
2023/08/15 04:38:12;;;;;;;23.02;19.92;;;18.70;99.90;;;;;;5035984;28;20407;-87
2023/08/15 04:40:43;;;;;;;23.52;20.10;;;18.70;99.90;;;;;;5000557;28;20043;-88
2023/08/15 04:43:10;;;;;;;23.58;20.00;;;18.70;99.90;;;;;;5037060;28;20480;-87
2023/08/15 04:45:43;;;;;;;30.55;22.13;;;18.70;99.90;;;;;;5035323;28;20131;-89
2023/08/15 04:48:10;;;;;;;30.20;22.65;;;18.70;99.90;;;;;;5047450;28;20051;-88
2023/08/15 04:50:36;;;;;;;27.77;22.85;;;18.70;99.90;;;;;;5071649;28;20055;-88
2023/08/15 04:53:08;;;;;;;27.23;23.63;;;18.70;99.90;;;;;;5039284;28;20418;-89
2023/08/15 04:55:34;;;;;;;30.38;24.50;;;18.70;99.90;;;;;;5035855;28;20037;-86
2023/08/15 04:58:00;;;;;;;33.38;24.77;;;18.60;99.90;;;;;;5051301;28;20048;-86
2023/08/15 05:00:25;;;;;;;30.48;24.63;;;18.60;99.90;;;;;;5016232;28;20100;-87
2023/08/15 05:02:51;;;;;;;26.55;22.45;;;18.60;99.90;;;;;;5055193;28;20041;-86
2023/08/15 05:05:17;;;;;;;28.02;21.85;;;18.60;99.90;;;;;;5046647;28;20036;-87
2023/08/15 05:07:42;;;;;;;32.50;25.33;;;18.60;99.90;;;;;;5044916;28;20086;-86
2023/08/15 05:10:09;;;;;;;26.85;22.95;;;18.70;99.90;;;;;;5043551;28;20045;-86
2023/08/15 05:12:34;;;;;;;29.27;23.25;;;18.60;99.90;;;;;;5022221;28;20041;-87
2023/08/15 05:15:00;;;;;;;26.52;22.58;;;18.70;99.90;;;;;;5031233;28;20064;-89
2023/08/15 05:17:26;;;;;;;30.50;24.45;;;18.60;99.90;;;;;;5033447;28;20550;-89
2023/08/15 05:19:52;;;;;;;28.65;22.65;;;18.70;99.90;;;;;;5071581;28;20080;-86
2023/08/15 05:22:17;;;;;;;26.27;21.33;;;18.70;99.90;;;;;;5039287;28;20037;-89
2023/08/15 05:24:43;;;;;;;30.63;21.40;;;18.70;99.90;;;;;;5019013;28;20103;-89
2023/08/15 05:27:12;;;;;;;25.30;19.85;;;18.60;99.90;;;;;;5026530;28;20045;-87
2023/08/15 05:29:40;;;;;;;24.75;20.35;;;18.70;99.90;;;;;;5057335;28;20052;-86
2023/08/15 05:32:06;;;;;;;28.42;20.58;;;18.60;99.90;;;;;;5052178;28;20480;-87
2023/08/15 05:34:31;;;;;;;22.92;20.17;;;18.60;99.90;;;;;;5034343;28;20045;-85
2023/08/15 05:36:57;;;;;;;29.20;20.88;;;18.70;99.90;;;;;;5035406;28;20041;-85
2023/08/15 05:39:23;;;;;;;28.23;20.58;;;18.70;99.90;;;;;;5050916;28;20382;-89
2023/08/15 05:41:49;;;;;;;25.10;20.38;;;18.70;99.90;;;;;;5034974;28;20064;-89
2023/08/15 05:44:14;;;;;;;28.58;19.70;;;18.70;99.90;;;;;;5051783;28;20086;-87
2023/08/15 05:46:40;;;;;;;24.63;18.85;;;18.70;99.90;;;;;;5018844;28;20044;-88
2023/08/15 05:49:06;;;;;;;25.42;19.60;;;18.70;99.90;;;;;;5027844;28;20033;-87
2023/08/15 05:51:31;;;;;;;23.05;19.30;;;18.70;99.90;;;;;;5035706;28;20037;-86
2023/08/15 05:53:57;;;;;;;22.20;18.63;;;18.70;99.90;;;;;;5034556;28;20041;-85
2023/08/15 05:56:23;;;;;;;21.90;19.05;;;18.70;99.90;;;;;;5051051;28;20120;-88
2023/08/15 05:58:49;;;;;;;25.45;18.33;;;18.70;99.90;;;;;;5034874;28;20114;-85
2023/08/15 06:01:14;;;;;;;23.27;17.98;;;18.80;99.90;;;;;;5034315;28;20206;-84
2023/08/15 06:03:40;;;;;;;21.35;17.55;;;18.70;99.90;;;;;;5051619;28;20532;-84
2023/08/15 06:06:06;;;;;;;23.55;18.83;;;18.70;99.90;;;;;;5051750;28;20684;-84
2023/08/15 06:08:31;;;;;;;20.38;18.08;;;18.70;99.90;;;;;;5044419;28;20503;-85
2023/08/15 06:10:57;;;;;;;20.30;16.23;;;18.70;99.90;;;;;;5034701;28;20045;-84
2023/08/15 06:13:23;;;;;;;23.58;16.80;;;18.70;99.90;;;;;;5044800;28;20036;-84
2023/08/15 06:15:49;;;;;;;20.50;16.55;;;18.70;99.90;;;;;;5038592;28;20064;-85
2023/08/15 06:18:14;;;;;;;21.35;17.20;;;18.70;99.90;;;;;;5021917;28;20053;-84
2023/08/15 06:20:40;;;;;;;25.65;16.92;;;18.70;99.90;;;;;;5028727;28;20389;-83
2023/08/15 06:23:06;;;;;;;19.63;14.68;;;18.70;99.90;;;;;;5050679;28;20049;-83
2023/08/15 06:25:31;;;;;;;21.23;14.40;;;18.80;99.90;;;;;;5036962;28;20045;-83
2023/08/15 06:27:57;;;;;;;16.33;14.60;;;18.80;99.90;;;;;;5045024;28;20044;-83
2023/08/15 06:30:23;;;;;;;17.38;13.82;;;18.80;99.90;;;;;;5036089;28;20037;-84
2023/08/15 06:32:49;;;;;;;15.23;12.40;;;18.80;99.90;;;;;;5033373;28;20029;-83
2023/08/15 06:35:14;;;;;;;14.85;12.38;;;18.70;99.90;;;;;;5008809;28;20120;-83
2023/08/15 06:37:40;;;;;;;16.77;12.55;;;18.70;99.90;;;;;;5064143;28;20083;-83
2023/08/15 06:40:08;;;;;;;16.15;12.38;;;18.70;99.90;;;;;;5049771;28;20118;-83
2023/08/15 06:42:34;;;;;;;14.70;11.27;;;18.80;99.90;;;;;;5063238;28;20174;-85
2023/08/15 06:45:15;;;;;;;15.43;11.60;;;18.80;99.90;;;;;;5051838;28;20127;-83
2023/08/15 06:47:41;;;;;;;14.63;10.80;;;18.90;99.90;;;;;;5033707;28;20037;-82
2023/08/15 06:50:08;;;;;;;13.32;10.00;;;19.00;99.90;;;;;;5050290;28;20112;-84
2023/08/15 06:52:34;;;;;;;14.77;10.23;;;19.10;99.90;;;;;;5037707;28;20041;-86
2023/08/15 06:55:03;;;;;;;14.45;9.95;;;19.20;99.90;;;;;;5030354;28;20044;-84
2023/08/15 06:57:32;;;;;;;12.52;8.82;;;19.20;99.90;;;;;;5041416;28;20044;-83
2023/08/15 06:59:58;;;;;;;14.65;9.40;;;19.20;99.90;;;;;;5056675;28;20052;-84
2023/08/15 07:02:25;;;;;;;11.98;9.18;;;19.20;99.90;;;;;;5020738;28;20507;-85
2023/08/15 07:04:51;;;;;;;14.27;9.18;;;19.30;99.90;;;;;;5013822;28;20056;-83
2023/08/15 07:07:17;;;;;;;16.92;9.75;;;19.40;99.90;;;;;;5037673;28;20040;-84
2023/08/15 07:09:44;;;;;;;13.23;9.15;;;19.40;99.90;;;;;;5060470;28;20120;-83
2023/08/15 07:12:09;;;;;;;14.32;9.23;;;19.40;99.90;;;;;;5055345;28;20062;-86
2023/08/15 07:14:35;;;;;;;13.45;8.77;;;19.50;99.90;;;;;;5055978;28;20475;-87
2023/08/15 07:17:01;;;;;;;15.65;9.25;;;19.50;99.90;;;;;;5033969;28;20124;-84
2023/08/15 07:19:27;;;;;;;12.30;8.52;;;19.70;99.90;;;;;;5032868;28;20045;-85
2023/08/15 07:21:53;;;;;;;11.82;8.45;;;19.70;99.90;;;;;;5049513;28;20496;-85
2023/08/15 07:24:19;;;;;;;11.35;7.53;;;19.80;99.90;;;;;;5036897;28;20047;-87
2023/08/15 07:26:45;;;;;;;13.82;7.10;;;19.90;99.90;;;;;;5033598;28;20131;-81
2023/08/15 07:29:12;;;;;;;13.15;7.38;;;20.00;99.90;;;;;;5049847;28;20109;-88
2023/08/15 07:31:38;;;;;;;15.80;6.65;;;20.10;99.90;;;;;;5033487;28;20068;-87
2023/08/15 07:34:04;;;;;;;10.75;6.07;;;20.20;99.90;;;;;;5033717;28;20037;-86
2023/08/15 07:36:30;;;;;;;11.38;6.05;;;20.30;99.90;;;;;;5040897;28;20041;-84
2023/08/15 07:38:56;;;;;;;8.65;5.38;;;20.30;99.90;;;;;;5050235;28;20558;-89
2023/08/15 07:41:22;;;;;;;9.05;5.38;;;20.40;99.90;;;;;;5036150;28;20171;-84
2023/08/15 07:43:48;;;;;;;10.95;5.90;;;20.50;99.90;;;;;;5041276;28;20041;-87
2023/08/15 07:46:14;;;;;;;9.88;4.97;;;20.60;99.90;;;;;;5042156;28;20722;-86
2023/08/15 07:48:39;;;;;;;9.90;5.07;;;20.70;99.90;;;;;;5025415;28;20045;-87
2023/08/15 07:51:05;;;;;;;12.20;5.00;;;20.70;99.90;;;;;;5016889;28;20053;-81
2023/08/15 07:53:31;;;;;;;8.27;4.65;;;20.80;99.90;;;;;;5060290;28;20097;-88
2023/08/15 07:55:57;;;;;;;7.53;4.28;;;20.80;99.90;;;;;;5045777;28;20064;-88
2023/08/15 07:58:23;;;;;;;13.98;5.03;;;20.90;99.90;;;;;;5043510;28;20068;-83
2023/08/15 08:00:49;;;;;;;9.05;4.38;;;21.00;99.90;;;;;;5054353;28;20072;-86
2023/08/15 08:03:16;;;;;;;9.98;5.00;;;21.10;99.90;;;;;;5055740;28;20110;-85
2023/08/15 08:05:42;;;;;;;6.85;4.15;;;21.10;99.90;;;;;;5029754;28;20055;-87
2023/08/15 08:08:08;;;;;;;8.13;3.90;;;21.10;99.90;;;;;;5062868;28;20037;-86
2023/08/15 08:10:34;;;;;;;8.38;3.92;;;21.00;99.90;;;;;;5062697;28;20756;-86
2023/08/15 08:13:00;;;;;;;16.38;4.15;;;21.10;99.90;;;;;;5051836;28;20053;-87
2023/08/15 08:15:27;;;;;;;5.90;3.80;;;21.20;99.90;;;;;;5042908;28;20374;-87
2023/08/15 08:17:53;;;;;;;8.23;3.30;;;21.20;99.90;;;;;;5059112;28;20044;-85
2023/08/15 08:20:20;;;;;;;7.70;3.63;;;21.30;99.90;;;;;;5052993;28;20041;-89
2023/08/15 08:22:47;;;;;;;7.13;3.10;;;21.40;99.90;;;;;;5036405;28;20070;-87
2023/08/15 08:25:16;;;;;;;7.75;3.45;;;21.30;99.90;;;;;;5041111;28;20382;-84
2023/08/15 08:27:46;;;;;;;5.13;2.95;;;21.30;99.90;;;;;;5052850;28;20044;-90
2023/08/15 08:30:13;;;;;;;5.43;2.90;;;21.10;99.90;;;;;;5030163;28;20036;-88
2023/08/15 08:32:38;;;;;;;7.60;3.53;;;21.00;99.90;;;;;;5034468;28;20037;-84
2023/08/15 08:35:05;;;;;;;4.90;3.10;;;20.90;99.90;;;;;;5053183;28;20041;-89
2023/08/15 08:37:32;;;;;;;7.43;3.08;;;20.90;99.90;;;;;;5055098;28;20195;-86
2023/08/15 08:39:58;;;;;;;5.97;3.40;;;20.80;99.90;;;;;;5009356;28;20045;-87
2023/08/15 08:42:25;;;;;;;6.00;3.05;;;20.90;99.90;;;;;;5045655;28;20175;-86
2023/08/15 08:44:51;;;;;;;9.20;3.80;;;21.00;99.90;;;;;;5053078;28;20048;-85
2023/08/15 08:47:19;;;;;;;8.90;3.60;;;21.20;99.90;;;;;;5042299;28;20132;-88
2023/08/15 08:49:47;;;;;;;8.15;3.97;;;21.40;99.90;;;;;;5045748;28;20531;-85
2023/08/15 08:52:14;;;;;;;6.53;3.70;;;21.70;99.90;;;;;;5041565;28;20066;-86
2023/08/15 08:54:40;;;;;;;5.32;3.35;;;21.80;99.90;;;;;;5035613;28;20566;-86
2023/08/15 08:57:07;;;;;;;6.47;3.50;;;21.80;99.90;;;;;;5019037;28;20110;-85
2023/08/15 08:59:36;;;;;;;7.22;3.25;;;21.80;99.90;;;;;;5060913;28;20048;-85
2023/08/15 09:02:02;;;;;;;8.50;3.20;;;21.90;99.90;;;;;;5039271;28;20466;-87
2023/08/15 09:04:29;;;;;;;6.88;3.40;;;21.90;99.90;;;;;;5040717;28;20046;-84
2023/08/15 09:06:54;;;;;;;7.75;3.33;;;22.00;99.90;;;;;;5022853;28;20084;-84
2023/08/15 09:09:20;;;;;;;7.05;3.45;;;22.10;99.90;;;;;;5047885;28;20504;-88
2023/08/15 09:11:47;;;;;;;7.18;3.10;;;22.00;99.90;;;;;;5036494;28;20123;-86
2023/08/15 09:14:15;;;;;;;5.65;3.22;;;21.90;99.90;;;;;;5057078;28;20059;-91
2023/08/15 09:16:48;;;;;;;5.43;3.15;;;21.90;99.90;;;;;;5050571;28;20076;-87
2023/08/15 09:19:15;;;;;;;7.50;3.47;;;21.90;99.90;;;;;;5044758;28;20079;-88
2023/08/15 09:21:42;;;;;;;6.68;3.42;;;22.10;99.90;;;;;;5057107;28;20139;-88
2023/08/15 09:24:08;;;;;;;7.47;3.35;;;22.20;99.90;;;;;;5069269;28;20055;-86
2023/08/15 09:26:35;;;;;;;6.55;3.63;;;22.20;99.90;;;;;;5051701;28;20040;-90
2023/08/15 09:29:02;;;;;;;6.07;3.40;;;22.10;99.90;;;;;;5035169;28;20469;-89
2023/08/15 09:31:28;;;;;;;7.32;3.88;;;22.00;99.90;;;;;;5055326;28;20492;-88
2023/08/15 09:33:54;;;;;;;7.43;3.75;;;21.90;99.90;;;;;;5042633;28;20029;-88
2023/08/15 09:36:23;;;;;;;4.40;3.60;;;21.90;99.90;;;;;;5056369;28;20051;-85
2023/08/15 09:38:51;;;;;;;9.68;4.28;;;22.10;99.90;;;;;;5050056;28;20114;-86
2023/08/15 09:41:17;;;;;;;4.15;3.50;;;22.10;99.90;;;;;;5050833;28;20047;-87
2023/08/15 09:43:53;;;;;;;7.43;4.30;;;22.10;99.90;;;;;;5034290;28;20048;-89
2023/08/15 09:46:20;;;;;;;6.80;4.50;;;22.10;99.90;;;;;;5059526;28;20044;-90
2023/08/15 09:48:48;;;;;;;9.07;4.63;;;22.00;99.90;;;;;;5028035;28;20149;-92
2023/08/15 09:51:15;;;;;;;8.10;4.65;;;22.00;99.90;;;;;;5051725;28;20119;-90
2023/08/15 09:53:46;;;;;;;6.85;4.57;;;22.00;99.90;;;;;;5051249;28;20048;-85
2023/08/15 09:56:12;;;;;;;5.75;3.80;;;22.00;99.90;;;;;;5034680;28;20041;-87
2023/08/15 09:58:39;;;;;;;7.38;4.10;;;22.00;99.90;;;;;;5045536;28;20040;-86
2023/08/15 10:01:10;;;;;;;7.90;4.30;;;22.00;99.90;;;;;;5033513;28;20057;-88
2023/08/15 10:03:38;;;;;;;5.28;4.13;;;22.00;99.90;;;;;;5033376;28;20063;-88
2023/08/15 10:06:07;;;;;;;6.22;4.00;;;22.10;99.90;;;;;;5033912;28;20534;-89
2023/08/15 10:08:38;;;;;;;5.07;3.50;;;22.20;99.90;;;;;;5039518;28;20042;-87
2023/08/15 10:11:07;;;;;;;7.27;3.70;;;22.30;99.90;;;;;;5032514;28;20123;-89
2023/08/15 10:13:35;;;;;;;5.07;3.25;;;22.20;99.90;;;;;;5062638;28;20278;-86
2023/08/15 10:16:12;;;;;;;7.00;3.80;;;22.20;99.90;;;;;;5034936;28;20048;-88
2023/08/15 10:18:38;;;;;;;5.82;3.25;;;22.20;99.90;;;;;;5049514;28;20044;-88
2023/08/15 10:21:04;;;;;;;6.22;3.30;;;22.30;99.90;;;;;;5058367;28;20615;-85
2023/08/15 10:23:32;;;;;;;5.22;3.92;;;22.20;99.90;;;;;;5052925;28;20061;-88
2023/08/15 10:25:59;;;;;;;5.03;3.60;;;22.30;99.90;;;;;;5034050;28;20048;-87
2023/08/15 10:28:29;;;;;;;6.13;3.95;;;22.40;99.90;;;;;;5030064;28;20041;-92
2023/08/15 10:30:55;;;;;;;6.88;4.38;;;22.40;99.90;;;;;;5034374;28;20474;-84
2023/08/15 10:33:26;;;;;;;6.90;3.83;;;22.40;99.90;;;;;;5050887;28;20040;-87
2023/08/15 10:35:55;;;;;;;7.77;4.20;;;22.50;99.90;;;;;;5050841;28;20041;-89
2023/08/15 10:38:43;;;;;;;5.05;3.30;;;22.80;99.90;;;;;;5036338;28;20460;-87
2023/08/15 10:41:19;;;;;;;4.82;3.55;;;22.90;99.90;;;;;;5039310;28;20048;-86
2023/08/15 10:43:49;;;;;;;5.05;3.45;;;23.10;99.90;;;;;;5033988;28;20171;-86
2023/08/15 10:46:25;;;;;;;7.88;3.53;;;23.20;99.90;;;;;;5041328;28;20044;-88
2023/08/15 10:48:54;;;;;;;5.28;3.00;;;23.30;99.90;;;;;;5050192;28;20043;-85
2023/08/15 10:51:26;;;;;;;6.55;3.25;;;23.40;99.90;;;;;;5064320;28;20041;-86
2023/08/15 10:54:00;;;;;;;5.65;3.50;;;23.50;99.90;;;;;;5062945;28;20040;-88
2023/08/15 10:56:28;;;;;;;5.18;3.20;;;23.60;99.90;;;;;;5053379;28;20123;-87
2023/08/15 10:58:55;;;;;;;6.05;3.30;;;23.60;99.90;;;;;;5053694;28;20083;-85
2023/08/15 11:01:26;;;;;;;5.82;3.00;;;23.60;99.90;;;;;;5057651;28;20148;-91
2023/08/15 11:03:54;;;;;;;7.18;2.67;;;23.50;99.90;;;;;;5036610;28;20492;-84
2023/08/15 11:06:20;;;;;;;4.38;2.83;;;23.60;99.90;;;;;;5059001;28;20492;-89
2023/08/15 11:08:54;;;;;;;3.85;2.47;;;23.60;99.90;;;;;;5054063;28;20033;-84
2023/08/15 11:11:20;;;;;;;6.57;2.90;;;23.60;99.90;;;;;;5051551;28;20128;-89
2023/08/15 11:13:48;;;;;;;4.88;2.55;;;23.50;99.90;;;;;;5061997;28;20128;-91
2023/08/15 11:16:16;;;;;;;5.25;2.30;;;23.40;99.90;;;;;;5047793;28;20119;-90
2023/08/15 11:18:43;;;;;;;3.15;2.22;;;23.40;99.90;;;;;;5057770;28;20041;-86
2023/08/15 11:21:11;;;;;;;4.72;2.38;;;23.30;99.90;;;;;;5018051;28;20393;-90
2023/08/15 11:23:37;;;;;;;3.20;2.20;;;23.10;99.90;;;;;;5048119;28;20051;-90
2023/08/15 11:26:18;;;;;;;3.55;2.50;;;23.10;99.90;;;;;;5034018;28;20034;-85
2023/08/15 11:28:44;;;;;;;3.70;2.40;;;23.30;99.90;;;;;;5044641;28;20052;-89
2023/08/15 11:31:12;;;;;;;5.43;2.70;;;23.20;99.90;;;;;;5038385;28;20044;-84
2023/08/15 11:33:38;;;;;;;6.78;2.35;;;23.40;99.90;;;;;;5055680;28;20120;-87
2023/08/15 11:36:10;;;;;;;6.10;2.75;;;23.40;99.90;;;;;;5056249;28;20127;-88
2023/08/15 11:38:38;;;;;;;5.57;2.80;;;23.50;99.90;;;;;;5066835;28;20032;-84
2023/08/15 11:41:04;;;;;;;4.45;2.58;;;23.70;99.90;;;;;;5047719;28;20084;-86
2023/08/15 11:43:34;;;;;;;6.65;3.50;;;23.70;99.90;;;;;;5062314;28;20053;-87
2023/08/15 11:46:04;;;;;;;4.53;2.60;;;23.70;99.90;;;;;;5018826;28;20105;-85
2023/08/15 11:48:31;;;;;;;6.03;2.53;;;23.60;99.90;;;;;;5038052;28;20400;-86
2023/08/15 11:50:57;;;;;;;4.40;2.75;;;23.40;99.90;;;;;;5047383;28;20392;-84
2023/08/15 11:53:23;;;;;;;5.60;2.70;;;23.30;99.90;;;;;;5053227;28;20123;-88
2023/08/15 11:55:48;;;;;;;4.85;2.72;;;23.20;99.90;;;;;;5035890;28;20120;-87
2023/08/15 11:58:31;;;;;;;8.30;3.28;;;23.10;99.90;;;;;;5060701;28;20093;-84
2023/08/15 12:01:02;;;;;;;5.60;2.95;;;23.10;99.90;;;;;;5048361;28;20048;-84
2023/08/15 12:03:33;;;;;;;5.80;2.63;;;23.30;99.90;;;;;;5036670;28;20136;-86
2023/08/15 12:06:01;;;;;;;6.88;3.28;;;23.50;99.90;;;;;;5037128;28;20387;-85
2023/08/15 12:08:28;;;;;;;7.00;3.33;;;23.60;99.90;;;;;;5036358;28;20441;-85
2023/08/15 12:10:56;;;;;;;5.05;2.88;;;23.50;99.90;;;;;;5054606;28;20782;-88
2023/08/15 12:13:32;;;;;;;5.15;2.55;;;23.30;99.90;;;;;;5057312;28;20033;-83
2023/08/15 12:16:01;;;;;;;4.28;2.67;;;23.30;99.90;;;;;;5036604;28;20029;-83
2023/08/15 12:18:27;;;;;;;4.57;2.97;;;23.30;99.90;;;;;;5046218;28;20411;-86
2023/08/15 12:20:53;;;;;;;5.53;2.88;;;23.50;99.90;;;;;;5052814;28;20033;-85
2023/08/15 12:23:19;;;;;;;5.40;3.30;;;23.80;99.90;;;;;;5028181;28;20045;-86
2023/08/15 12:25:44;;;;;;;8.23;3.03;;;24.00;99.90;;;;;;5071865;28;20050;-85
2023/08/15 12:28:10;;;;;;;6.40;3.38;;;24.20;99.90;;;;;;5072812;28;20048;-87
2023/08/15 12:30:36;;;;;;;3.50;3.13;;;24.40;99.90;;;;;;5052529;28;20036;-86
2023/08/15 12:33:02;;;;;;;7.32;3.35;;;24.40;99.90;;;;;;5053505;28;20028;-88
2023/08/15 12:35:28;;;;;;;7.05;3.40;;;24.40;99.90;;;;;;5069314;28;20069;-87